Flight Track Log - Related Links

Times and Time Zones

All times are in EDT time to prevent confusion due to time zone crossing. See the GJS3649 flight status page for this flight to view local times or setup timezone preferences in your user account.

Time Position Orientation Groundspeed Altitude Reporting Facility
EDT Latitude Longitude Course Direction KTS MPH feet Rate Location/Type
Sat 12:06:17 PM 41.9167 -87.8833 85° East 191 220 2,600  Level Chicago TRACON
Sat 12:07:11 PM 41.9333 -87.8000 75° East 251 289 4,500 2,504 Climbing Chicago TRACON
Sat 12:08:12 PM 41.9333 -87.7167 90° East 268 308 7,400 2,882 Climbing Chicago TRACON
Sat 12:09:18 PM 41.9681 -87.6017 68° East 284 327 10,600 2,719 Climbing Chicago Center
Sat 12:10:20 PM 41.9953 -87.5000 70° East 288 331 13,200 2,032 Climbing Chicago Center
Sat 12:11:00 PM 42.0381 -86.9567 85° East  Level Estimated
Sat 12:11:22 PM 42.0247 -87.3883 70° East 311 358 14,800  Level Chicago Center
Sat 12:12:24 PM 42.0603 -87.2608 69° East 360 414 16,300 1,645 Climbing Chicago Center
Sat 12:13:26 PM 42.0953 -87.1264 71° East 379 436 18,200 2,032 Climbing Chicago Center
Sat 12:14:28 PM 42.1147 -86.9572 81° East 387 445 20,500 1,839 Climbing Chicago Center
Sat 12:15:30 PM 42.1208 -86.8131 87° East 387 445 22,000 1,210 Climbing Chicago Center
Sat 12:16:32 PM 42.1247 -86.6722 88° East 402 463 23,000 968 Climbing Chicago Center
Sat 12:17:34 PM 42.1308 -86.5139 87° East 420 483 24,000 968 Climbing Chicago Center
Sat 12:18:36 PM 42.1361 -86.3494 87° East 436 502 25,000 1,104 Climbing Chicago Center
Sat 12:19:39 PM 42.1431 -86.1444 87° East 455 524 26,300 1,113 Climbing Chicago Center
Sat 12:20:40 PM 42.1433 -85.9692 90° East 464 534 27,300 927 Climbing Chicago Center
Sat 12:21:42 PM 42.1411 -85.8086 91° East 470 541 28,200 1,016 Climbing Chicago Center
Sat 12:22:44 PM 42.1403 -85.5947 90° East 479 551 29,400 1,065 Climbing Chicago Center
Sat 12:23:46 PM 42.1372 -85.4150 91° East 482 555 30,400 968 Climbing Chicago Center
Sat 12:24:48 PM 42.1350 -85.2367 91° East 480 552 31,400 968 Climbing Chicago Center
Sat 12:25:50 PM 42.1342 -85.0528 90° East 489 563 32,400 968 Climbing Chicago Center
Sat 12:26:52 PM 42.1311 -84.8719 91° East 486 559 33,400 968 Climbing Chicago Center
Sat 12:27:54 PM 42.1283 -84.6917 91° East 485 558 34,400 1,065 Climbing Chicago Center
Sat 12:28:56 PM 42.1408 -84.4758 85° East 483 556 35,600 1,065 Climbing Chicago Center
Sat 12:29:58 PM 42.1575 -84.2928 83° East 490 564 36,600 677 Climbing Chicago Center
Sat 12:31:00 PM 42.1686 -84.1022 85° East 480 552 37,000 197 Climbing Cleveland Center
Sat 12:32:00 PM 42.1847 -83.9153 83° East 480 552 37,000  Level Cleveland Center
Sat 12:33:00 PM 42.1983 -83.7281 84° East 486 559 37,000  Level Cleveland Center
Sat 12:34:00 PM 42.2161 -83.5300 83° East 513 590 37,000  Level Cleveland Center
Sat 12:35:00 PM 42.2286 -83.3622 84° East 519 597 37,000  Level Cleveland Center
Sat 12:36:00 PM 42.2436 -83.1636 84° East 519 597 37,000  Level Cleveland Center
Sat 12:37:00 PM 42.2581 -82.9764 84° East 514 592 37,000  Level Cleveland Center
Sat 12:38:00 PM 42.2700 -82.7914 85° East 503 579 37,000  Level Cleveland Center
Sat 12:39:00 PM 42.2839 -82.6067 84° East 498 573 37,000  Level Cleveland Center
Sat 12:40:00 PM 42.2975 -82.4219 84° East 498 573 37,000  Level Cleveland Center
Sat 12:41:00 PM 42.3086 -82.2397 85° East 498 573 37,000  Level Cleveland Center
Sat 12:42:00 PM 42.3239 -82.0433 84° East 492 566 37,000  Level Cleveland Center
Sat 12:43:00 PM 42.3386 -81.8556 84° East 492 566 37,000  Level Cleveland Center
Sat 12:44:00 PM 42.3486 -81.6703 86° East 492 566 37,000  Level Cleveland Center
Sat 12:45:00 PM 42.3586 -81.4822 86° East 497 572 37,000  Level Cleveland Center
Sat 12:46:00 PM 42.3725 -81.2969 84° East 502 578 37,000  Level Cleveland Center
Sat 12:47:00 PM 42.3819 -81.1117 86° East 492 566 37,000  Level Cleveland Center
Sat 12:48:00 PM 42.3908 -80.9403 86° East 505 581 37,000  Level Cleveland Center
Sat 12:49:00 PM 42.4017 -80.7492 86° East 505 581 37,000  Level Cleveland Center
Sat 12:50:00 PM 42.4103 -80.5578 86° East 505 581 37,000  Level Cleveland Center
Sat 12:51:00 PM 42.4203 -80.3694 86° East 500 575 37,000  Level Cleveland Center
Sat 12:52:00 PM 42.4283 -80.1808 87° East 505 581 37,000  Level Cleveland Center
Sat 12:53:00 PM 42.4400 -79.9756 86° East 499 574 37,000  Level Cleveland Center
Sat 12:54:00 PM 42.4472 -79.8067 87° East 499 574 37,000  Level Cleveland Center
Sat 12:55:00 PM 42.4622 -79.6008 84° East 499 574 37,000  Level Cleveland Center
Sat 12:56:00 PM 42.4667 -79.4122 88° East 499 574 37,000  Level Cleveland Center
Sat 12:57:00 PM 42.4753 -79.2236 86° East 499 574 37,000  Level Cleveland Center
Sat 12:58:00 PM 42.4811 -79.0319 88° East 499 574 37,000  Level Cleveland Center
Sat 12:59:00 PM 42.4889 -78.8431 87° East 499 574 37,000  Level Cleveland Center
Sat 01:00:00 PM 42.4961 -78.6542 87° East 499 574 37,000  Level Cleveland Center
Sat 01:01:00 PM 42.5033 -78.4681 87° East 499 574 37,000  Level Cleveland Center
Sat 01:02:00 PM 42.5081 -78.2819 88° East 499 574 37,000  Level Cleveland Center
Sat 01:03:00 PM 42.5125 -78.0931 88° East 499 574 37,000 -100 Level Cleveland Center
Sat 01:04:00 PM 42.5167 -77.9069 88° East 499 574 36,800 -550 Descending Cleveland Center
Sat 01:05:00 PM 42.5231 -77.7319 87° East 499 574 35,900 -900 Descending Cleveland Center
Sat 01:06:00 PM 42.5306 -77.5400 87° East 505 581 35,000 -329 Descending Cleveland Center
Sat 01:07:44 PM 42.5367 -77.1889 89° East 517 595 35,000  Level Boston Center
Sat 01:08:44 PM 42.5397 -77.0086 89° East 495 570 35,000  Level Boston Center
Sat 01:09:44 PM 42.5450 -76.8258 88° East 490 564 35,000  Level Boston Center
Sat 01:10:44 PM 42.5481 -76.6369 89° East 490 564 35,000  Level Boston Center
Sat 01:11:44 PM 42.5525 -76.4511 88° East 490 564 35,000  Level Boston Center
Sat 01:12:44 PM 42.5528 -76.2622 90° East 496 571 35,000  Level Boston Center
Sat 01:13:44 PM 42.5569 -76.0736 88° East 496 571 35,000  Level Boston Center
Sat 01:14:44 PM 42.5581 -75.9017 89° East 496 571 35,000 -450 Level Boston Center
Sat 01:15:44 PM 42.5617 -75.7131 88° East 496 571 34,100 -1,150 Descending Boston Center
Sat 01:16:44 PM 42.5628 -75.5214 89° East 496 571 32,700 -1,100 Descending Boston Center
Sat 01:17:44 PM 42.5700 -75.3328 87° East 496 571 31,900 -1,450 Descending Boston Center
Sat 01:18:44 PM 42.5578 -75.1433 95° East 496 571 29,800 -2,500 Descending Boston Center
Sat 01:19:44 PM 42.5286 -74.9703 103° East 484 557 26,900 -2,750 Descending Boston Center
Sat 01:20:44 PM 42.4967 -74.8000 104° East 471 542 24,300 -2,500 Descending Boston Center
Sat 01:21:44 PM 42.4794 -74.6303 98° East 461 531 21,900 -2,450 Descending Boston Center
Sat 01:22:44 PM 42.4825 -74.4644 89° East 453 521 19,400 -1,950 Descending Boston Center
Sat 01:23:44 PM 42.4833 -74.2897 90° East 430 495 18,000 -700 Descending Boston Center
Sat 01:24:44 PM 42.4667 -74.1486 99° East 419 482 18,000 -50 Level Boston Center
Sat 01:25:44 PM 42.4358 -73.9761 104° East 419 482 17,900 -500 Descending Boston Center
Sat 01:26:44 PM 42.4106 -73.8375 104° East 424 488 17,000 -1,250 Descending Boston Center
Sat 01:27:44 PM 42.3792 -73.6767 105° East 409 471 15,400 -1,691 Descending Boston Center
Sat 01:28:34 PM 42.3575 -73.5611 104° East 404 465 13,900 -1,450 Descending Boston Center
Sat 01:29:44 PM 42.3275 -73.4061 105° East 390 449 12,500 -1,338 Descending Boston Center
Sat 01:30:44 PM 42.3100 -73.2514 99° East 379 436 11,000 -1,250 Descending Boston Center
Sat 01:31:44 PM 42.3044 -73.1250 93° East 350 403 10,000 -1,250 Descending Boston Center
Sat 01:32:44 PM 42.2989 -73.0069 94° East 323 372 8,500 -1,500 Descending Boston Center
Sat 01:33:44 PM 42.2703 -72.9058 111° Southeast 291 335 7,000 -1,500 Descending Boston Center
Sat 01:34:44 PM 42.2372 -72.8103 115° Southeast 275 316 5,500 -1,000 Descending Boston Center
Sat 01:35:44 PM 42.2000 -72.7231 120° Southeast 267 307 5,000 -250 Descending Boston Center
Sat 01:36:44 PM 42.1689 -72.6389 116° Southeast 258 297 5,000  Level Boston Center
Sat 01:37:44 PM 42.1356 -72.5578 119° Southeast 253 291 5,000 -720 Level Boston Center
Sat 01:38:49 PM 42.0753 -72.5325 163° South 232 267 3,500 -1,350 Descending Boston Center
Sat 01:39:44 PM 42.0314 -72.5658 209° Southwest 192 221 2,300 -991 Descending Boston Center
Sat 01:40:44 PM 42.0022 -72.6050 225° Southwest 175 201 1,600 -750 Descending Boston Center
Sat 01:41:44 PM 41.9731 -72.6439 225° Southwest 159 183 800 -700 Descending Boston Center
Sat 01:42:44 PM 41.9519 -72.6744 227° Southwest 146 168 200 -600 Descending Boston Center
Sat 01:44:00 PM 41.9333 -72.6833 206° Southwest  Level FlightAware Approximate
Sat 01:51:00 PM 41.9392 -72.6834 206° Southwest  Level Estimated

Login

Don't have an account? Register now (free) for customized features, flight alerts, and more!